Time;durP1;ratioP1;P1;durP2;ratioP2;P2;SDS_P1;SDS_P2;PMS_P1;PMS_P2;Temp;Humidity;BMP_temperature;BMP_pressure;BME280_temperature;BME280_humidity;BME280_pressure;Samples;Min_cycle;Max_cycle;Signal;HPM_P1;HPM_P2
2021/09/05 00:02:04;;;;;;;2.80;2.40;;;;;;;22.00;44.24;100113.39;1825707;77;20982;-65
2021/09/05 00:04:30;;;;;;;2.50;2.30;;;;;;;21.98;44.26;100116.33;1820271;78;21067;-64
2021/09/05 00:06:59;;;;;;;2.60;2.15;;;;;;;21.97;44.24;100117.91;1823473;78;21040;-66
2021/09/05 00:09:26;;;;;;;2.02;1.82;;;;;;;21.97;44.28;100121.97;1826472;77;21017;-66
2021/09/05 00:11:53;;;;;;;2.10;1.90;;;;;;;21.96;44.27;100117.59;1819149;77;21197;-65
2021/09/05 00:14:21;;;;;;;2.58;2.37;;;;;;;21.94;44.25;100119.72;1820682;77;21544;-65
2021/09/05 00:16:49;;;;;;;2.62;2.42;;;;;;;21.93;44.31;100118.90;1820976;77;21037;-64
2021/09/05 00:19:16;;;;;;;2.60;2.10;;;;;;;21.93;44.29;100121.60;1831576;77;21084;-66
2021/09/05 00:21:43;;;;;;;1.85;1.75;;;;;;;21.92;44.31;100128.09;1824591;77;21064;-65
2021/09/05 00:24:11;;;;;;;2.08;1.85;;;;;;;21.90;44.34;100119.89;1822717;77;21579;-65
2021/09/05 00:26:38;;;;;;;2.90;2.12;;;;;;;21.90;44.36;100129.36;1829826;77;21017;-65
2021/09/05 00:29:08;;;;;;;2.33;2.12;;;;;;;21.89;44.36;100121.78;1828646;77;21025;-65
2021/09/05 00:31:34;;;;;;;2.50;2.30;;;;;;;21.88;44.33;100127.42;1832340;77;21001;-64
2021/09/05 00:34:02;;;;;;;2.40;2.20;;;;;;;21.87;44.34;100130.66;1829561;77;21051;-66
2021/09/05 00:36:31;;;;;;;2.47;2.10;;;;;;;21.86;44.38;100129.53;1827572;78;21490;-65
2021/09/05 00:38:58;;;;;;;2.50;2.30;;;;;;;21.86;44.36;100132.23;1824818;77;21103;-65
2021/09/05 00:41:26;;;;;;;3.17;2.55;;;;;;;21.83;44.37;100129.48;1826155;77;21130;-66
2021/09/05 00:44:05;;;;;;;2.75;2.20;;;;;;;21.82;44.37;100139.98;1820119;78;21077;-67
2021/09/05 00:46:35;;;;;;;2.20;2.00;;;;;;;21.81;44.37;100141.06;1826039;77;21033;-66
2021/09/05 00:49:02;;;;;;;2.67;2.25;;;;;;;21.80;44.42;100143.45;1821286;77;21096;-66
2021/09/05 00:51:31;;;;;;;2.67;2.20;;;;;;;21.78;44.43;100136.10;1816305;78;21509;-65
2021/09/05 00:54:03;;;;;;;2.12;1.92;;;;;;;21.77;44.42;100144.75;1823319;77;21027;-65
2021/09/05 00:56:34;;;;;;;2.80;2.58;;;;;;;21.76;44.47;100149.84;1826511;77;21002;-65
2021/09/05 00:59:10;;;;;;;2.52;2.12;;;;;;;21.75;44.47;100147.37;1824997;78;21032;-66
2021/09/05 01:01:39;;;;;;;2.42;2.20;;;;;;;21.73;44.46;100148.13;1828195;77;21068;-65
2021/09/05 01:04:07;;;;;;;2.42;2.20;;;;;;;21.71;44.54;100151.09;1829541;77;21701;-66
2021/09/05 01:06:35;;;;;;;2.22;2.00;;;;;;;21.70;44.52;100156.19;1834488;77;21036;-66
2021/09/05 01:09:03;;;;;;;2.40;2.20;;;;;;;21.69;44.54;100157.77;1826214;78;21052;-65
2021/09/05 01:11:34;;;;;;;2.17;1.85;;;;;;;21.68;44.55;100156.95;1825200;77;21098;-67
2021/09/05 01:14:06;;;;;;;3.10;2.65;;;;;;;21.68;44.57;100153.43;1819501;77;21096;-66
2021/09/05 01:16:37;;;;;;;2.95;2.65;;;;;;;21.66;44.58;100155.00;1830145;77;21029;-66
2021/09/05 01:19:22;;;;;;;2.67;2.47;;;;;;;21.65;44.63;100151.17;1819901;78;21012;-65
2021/09/05 01:22:07;;;;;;;2.87;2.42;;;;;;;21.64;44.58;100161.70;1804283;77;21378;-66
2021/09/05 01:24:49;;;;;;;3.22;2.72;;;;;;;21.62;44.60;100165.17;1748384;78;21006;-67
2021/09/05 01:27:20;;;;;;;2.62;2.42;;;;;;;21.59;44.65;100161.88;1826501;77;21543;-66
2021/09/05 01:29:48;;;;;;;2.40;2.20;;;;;;;21.59;44.63;100169.14;1822961;77;21123;-66
2021/09/05 01:32:33;;;;;;;2.20;2.00;;;;;;;21.57;44.67;100169.90;1828742;76;21022;-66
2021/09/05 01:35:18;;;;;;;2.45;2.25;;;;;;;21.56;44.68;100173.67;1828799;77;21558;-65
2021/09/05 01:37:58;;;;;;;2.98;2.37;;;;;;;21.53;44.70;100164.12;1839460;77;21085;-66
2021/09/05 01:40:27;;;;;;;2.62;2.42;;;;;;;21.53;44.71;100169.53;1807268;77;21185;-65
2021/09/05 01:43:11;;;;;;;2.62;2.42;;;;;;;21.52;44.75;100167.90;1787490;77;21075;-65
2021/09/05 01:45:48;;;;;;;2.72;2.52;;;;;;;21.50;44.77;100171.36;1827854;77;20987;-64
2021/09/05 01:48:26;;;;;;;2.98;2.42;;;;;;;21.50;44.75;100174.06;1827829;77;21018;-63
2021/09/05 01:51:06;;;;;;;2.60;2.33;;;;;;;21.48;44.74;100175.33;1817994;77;21063;-65
2021/09/05 01:53:37;;;;;;;2.45;2.17;;;;;;;21.46;44.78;100181.48;1786613;78;21135;-65
2021/09/05 01:56:23;;;;;;;2.40;2.20;;;;;;;21.45;44.82;100186.08;1819874;77;21099;-65
2021/09/05 01:58:58;;;;;;;2.60;2.40;;;;;;;21.44;44.83;100188.50;1814588;77;21021;-65
2021/09/05 02:01:44;;;;;;;2.37;2.17;;;;;;;21.43;44.93;100182.75;1816768;77;21493;-65
2021/09/05 02:04:18;;;;;;;2.52;2.33;;;;;;;21.42;44.90;100190.55;1821031;77;21068;-65
2021/09/05 02:07:02;;;;;;;2.50;2.27;;;;;;;21.39;44.86;100188.31;1810023;77;21125;-65
2021/09/05 02:09:39;;;;;;;2.83;2.50;;;;;;;21.38;44.83;100190.20;1737136;80;21052;-65
2021/09/05 02:12:10;;;;;;;3.27;2.47;;;;;;;21.36;44.92;100193.66;1793885;77;22103;-65
2021/09/05 02:14:50;;;;;;;2.72;2.52;;;;;;;21.36;44.91;100192.31;1809094;77;21458;-65
2021/09/05 02:17:35;;;;;;;2.37;2.17;;;;;;;21.36;44.91;100196.87;1820105;78;21065;-64
2021/09/05 02:20:12;;;;;;;2.60;2.40;;;;;;;21.33;44.92;100190.05;1822248;78;22347;-65
2021/09/05 02:22:57;;;;;;;2.47;2.27;;;;;;;21.31;44.92;100193.51;1823289;77;21067;-65
2021/09/05 02:25:28;;;;;;;2.72;2.52;;;;;;;21.30;44.94;100199.95;1803154;78;21018;-66
2021/09/05 02:28:06;;;;;;;2.27;2.08;;;;;;;21.30;44.94;100201.84;1787157;78;21611;-65
2021/09/05 02:30:35;;;;;;;2.40;2.12;;;;;;;21.29;44.96;100198.86;1816916;78;21084;-64
2021/09/05 02:33:09;;;;;;;2.25;2.05;;;;;;;21.28;45.01;100202.59;1818990;77;21921;-64
2021/09/05 02:35:43;;;;;;;3.85;2.02;;;;;;;21.26;44.99;100197.41;1760942;78;21009;-65
2021/09/05 02:38:30;;;;;;;2.83;2.50;;;;;;;21.25;45.00;100201.18;1809605;77;20996;-64
2021/09/05 02:41:01;;;;;;;2.83;2.50;;;;;;;21.24;45.00;100202.75;1821438;77;21104;-66
2021/09/05 02:43:43;;;;;;;3.25;2.83;;;;;;;21.24;45.04;100204.11;1762388;77;21463;-65
2021/09/05 02:46:28;;;;;;;2.75;2.33;;;;;;;21.22;45.00;100205.67;1820521;77;21130;-64
2021/09/05 02:48:59;;;;;;;2.70;2.17;;;;;;;21.22;45.01;100212.43;1816289;77;21533;-65
2021/09/05 02:51:45;;;;;;;2.67;2.10;;;;;;;21.21;45.04;100214.31;1798143;78;21062;-64
2021/09/05 02:54:31;;;;;;;3.05;2.52;;;;;;;21.21;45.04;100212.97;1819190;77;21608;-65
2021/09/05 02:57:06;;;;;;;2.15;1.95;;;;;;;21.20;45.12;100218.59;1813016;77;21080;-65
2021/09/05 02:59:37;;;;;;;2.30;2.00;;;;;;;21.20;45.04;100219.94;1770792;77;21163;-64
2021/09/05 03:02:06;;;;;;;2.33;2.12;;;;;;;21.19;45.07;100225.06;1814117;77;21091;-65
2021/09/05 03:04:51;;;;;;;2.62;2.33;;;;;;;21.19;45.07;100227.23;1813933;77;21079;-64
2021/09/05 03:07:19;;;;;;;2.60;2.40;;;;;;;21.19;45.05;100230.46;1809935;77;21030;-65
2021/09/05 03:10:05;;;;;;;2.62;2.22;;;;;;;21.18;45.10;100232.31;1819046;77;21120;-65
2021/09/05 03:12:33;;;;;;;2.83;2.17;;;;;;;21.19;45.06;100233.16;1788559;77;21227;-65
2021/09/05 03:15:12;;;;;;;4.83;2.22;;;;;;;21.19;45.06;100231.81;1815022;77;21029;-67
2021/09/05 03:17:43;;;;;;;2.45;2.20;;;;;;;21.18;45.04;100231.50;1813978;77;21009;-66
2021/09/05 03:20:12;;;;;;;2.10;1.85;;;;;;;21.18;45.08;100232.84;1813019;77;21049;-67
2021/09/05 03:22:41;;;;;;;2.35;2.10;;;;;;;21.18;45.41;100233.67;1815305;77;21289;-67
2021/09/05 03:25:10;;;;;;;2.27;2.08;;;;;;;21.18;45.63;100233.67;1825610;77;21145;-66
2021/09/05 03:27:54;;;;;;;2.58;2.37;;;;;;;21.19;45.70;100237.22;1755780;80;21054;-67
2021/09/05 03:30:23;;;;;;;2.30;1.98;;;;;;;21.19;45.69;100245.32;1806306;78;21013;-65
2021/09/05 03:32:54;;;;;;;2.25;2.05;;;;;;;21.19;45.71;100241.27;1799974;78;21599;-65
2021/09/05 03:35:25;;;;;;;2.40;2.15;;;;;;;21.19;45.60;100243.97;1823807;77;21064;-65
2021/09/05 03:38:02;;;;;;;2.90;2.25;;;;;;;21.19;45.59;100246.67;1818380;77;21322;-65
2021/09/05 03:40:33;;;;;;;2.12;1.92;;;;;;;21.17;45.56;100246.89;1819949;78;21065;-65
2021/09/05 03:43:11;;;;;;;2.25;1.82;;;;;;;21.17;45.54;100253.64;1815734;77;21018;-65
2021/09/05 03:45:39;;;;;;;3.35;2.00;;;;;;;21.18;45.47;100257.16;1818245;78;21496;-65
2021/09/05 03:48:21;;;;;;;2.62;2.10;;;;;;;21.18;45.51;100263.92;1819223;77;21001;-66
2021/09/05 03:50:49;;;;;;;2.55;2.17;;;;;;;21.17;45.51;100260.91;1822994;77;21081;-65
2021/09/05 03:53:16;;;;;;;2.50;2.30;;;;;;;21.17;45.47;100267.66;1823000;77;21076;-65
2021/09/05 03:55:44;;;;;;;2.58;2.17;;;;;;;21.17;45.47;100265.80;1820361;77;20994;-65
2021/09/05 03:58:14;;;;;;;2.40;2.20;;;;;;;21.16;45.44;100268.19;1820632;77;20993;-65
2021/09/05 04:00:40;;;;;;;2.35;2.10;;;;;;;21.16;45.41;100274.94;1827013;77;21057;-65
2021/09/05 04:03:08;;;;;;;2.58;2.33;;;;;;;21.16;45.40;100275.48;1816157;77;22045;-65
2021/09/05 04:05:36;;;;;;;2.20;2.00;;;;;;;21.16;45.39;100275.48;1819708;77;21029;-66
2021/09/05 04:10:33;;;;;;;2.50;2.30;;;;;;;21.15;45.32;100279.21;1821151;78;20995;-65
2021/09/05 04:12:59;;;;;;;2.77;2.22;;;;;;;21.15;45.35;100274.66;1823462;77;21037;-65
2021/09/05 04:15:26;;;;;;;2.22;2.02;;;;;;;21.15;45.35;100281.91;1820680;77;21119;-64
2021/09/05 04:17:55;;;;;;;2.87;2.10;;;;;;;21.15;45.32;100282.77;1808071;77;21044;-65
2021/09/05 04:20:22;;;;;;;2.30;2.10;;;;;;;21.16;45.39;100283.05;1812330;77;21013;-64
2021/09/05 04:22:49;;;;;;;2.70;2.25;;;;;;;21.16;45.34;100287.10;1821209;78;21564;-65
2021/09/05 04:25:17;;;;;;;2.25;2.05;;;;;;;21.15;45.32;100289.52;1823303;77;21052;-65
2021/09/05 04:27:46;;;;;;;2.60;2.10;;;;;;;21.17;45.33;100291.97;1818475;78;21045;-65
2021/09/05 04:30:12;;;;;;;2.40;2.10;;;;;;;21.17;45.34;100287.42;1810203;78;20974;-66
2021/09/05 04:32:40;;;;;;;2.72;2.12;;;;;;;21.18;45.27;100294.45;1815979;77;21047;-65
2021/09/05 04:35:07;;;;;;;2.12;1.92;;;;;;;21.18;45.31;100297.16;1822123;77;20986;-65
2021/09/05 04:37:34;;;;;;;2.42;2.22;;;;;;;21.19;45.27;100293.95;1818336;77;21543;-65
2021/09/05 04:40:02;;;;;;;2.42;2.10;;;;;;;21.19;45.33;100293.42;1820457;78;21125;-65
2021/09/05 04:42:28;;;;;;;2.42;2.22;;;;;;;21.19;45.31;100298.82;1825756;77;20997;-64
2021/09/05 04:44:56;;;;;;;2.33;2.02;;;;;;;21.20;45.34;100297.75;1823246;77;21058;-65
2021/09/05 04:47:23;;;;;;;2.08;1.77;;;;;;;21.21;45.36;100306.70;1819284;77;21100;-65
2021/09/05 04:49:49;;;;;;;2.08;1.90;;;;;;;21.21;45.31;100306.17;1818537;77;22257;-65
2021/09/05 04:52:16;;;;;;;2.10;1.90;;;;;;;21.23;45.34;100303.26;1822557;77;21127;-65
2021/09/05 04:54:42;;;;;;;2.40;2.20;;;;;;;21.23;45.35;100303.26;1816996;77;21486;-65
2021/09/05 04:57:09;;;;;;;2.80;2.40;;;;;;;21.25;45.35;100305.70;1814389;77;21674;-66
2021/09/05 04:59:36;;;;;;;2.20;2.00;;;;;;;21.25;45.31;100306.56;1808257;77;21131;-65
2021/09/05 05:02:03;;;;;;;2.00;1.90;;;;;;;21.26;45.28;100313.59;1813819;77;21041;-66
2021/09/05 05:04:30;;;;;;;2.50;2.22;;;;;;;21.28;45.33;100314.73;1817086;77;21098;-66
2021/09/05 05:06:57;;;;;;;2.25;2.05;;;;;;;21.28;45.27;100314.20;1810392;77;21072;-66
2021/09/05 05:09:23;;;;;;;2.00;1.85;;;;;;;21.30;45.32;100310.73;1822320;77;21030;-65
2021/09/05 05:11:49;;;;;;;2.45;2.05;;;;;;;21.31;45.31;100311.05;1806138;78;21548;-65
2021/09/05 05:14:18;;;;;;;2.33;2.12;;;;;;;21.32;45.33;100307.82;1820926;77;21013;-64
2021/09/05 05:16:45;;;;;;;2.20;2.00;;;;;;;21.35;45.37;100319.55;1813005;77;21171;-65
2021/09/05 05:19:12;;;;;;;2.70;1.80;;;;;;;21.34;45.33;100312.47;1824064;78;20974;-65
2021/09/05 05:21:38;;;;;;;2.20;2.00;;;;;;;21.37;45.37;100314.20;1822967;77;21045;-65
2021/09/05 05:24:06;;;;;;;2.35;2.15;;;;;;;21.39;45.41;100318.86;1821335;77;21316;-66
2021/09/05 05:26:32;;;;;;;2.20;2.00;;;;;;;21.41;45.38;100315.94;1821518;78;21525;-66
2021/09/05 05:28:59;;;;;;;1.90;1.80;;;;;;;21.44;45.43;100318.23;1812888;77;21165;-67
2021/09/05 05:31:25;;;;;;;2.35;2.15;;;;;;;21.37;45.39;100305.28;1808189;77;21033;-65
2021/09/05 05:33:52;;;;;;;2.30;2.02;;;;;;;21.48;45.43;100323.98;1817505;77;21060;-66
2021/09/05 05:36:18;;;;;;;1.82;1.70;;;;;;;21.51;45.39;100327.06;1819783;78;21025;-65
2021/09/05 05:38:45;;;;;;;1.87;1.77;;;;;;;21.52;45.44;100320.62;1828283;77;21025;-67
2021/09/05 05:41:13;;;;;;;2.08;1.92;;;;;;;21.56;45.36;100325.05;1833422;76;21123;-65
2021/09/05 05:43:41;;;;;;;2.22;2.02;;;;;;;21.57;45.37;100328.86;1831887;76;21021;-66
2021/09/05 05:46:07;;;;;;;2.20;2.00;;;;;;;21.59;45.43;100321.87;1833301;77;21576;-67
2021/09/05 05:48:34;;;;;;;2.22;2.02;;;;;;;21.60;45.37;100323.02;1833027;76;21009;-66
2021/09/05 05:51:01;;;;;;;2.85;2.17;;;;;;;21.64;45.34;100332.84;1831868;77;21478;-65
2021/09/05 05:53:27;;;;;;;1.90;1.80;;;;;;;21.66;45.39;100333.45;1831727;77;21166;-65
2021/09/05 05:55:54;;;;;;;1.70;1.60;;;;;;;21.58;45.40;100321.06;1830670;77;21476;-66
2021/09/05 05:58:21;;;;;;;1.70;1.60;;;;;;;21.70;45.37;100342.75;1830837;78;21548;-65
2021/09/05 06:00:48;;;;;;;1.80;1.70;;;;;;;21.72;45.35;100340.64;1831006;77;21103;-65
2021/09/05 06:03:16;;;;;;;2.40;2.10;;;;;;;21.75;45.35;100342.06;1828013;76;21098;-66
2021/09/05 06:05:43;;;;;;;2.40;2.20;;;;;;;21.78;45.31;100341.08;1814701;78;21468;-65
2021/09/05 06:08:10;;;;;;;2.15;1.90;;;;;;;21.80;45.31;100343.56;1823155;78;21044;-66
2021/09/05 06:10:38;;;;;;;2.10;1.90;;;;;;;21.82;45.31;100344.16;1820860;77;21528;-66
2021/09/05 06:13:04;;;;;;;2.47;2.27;;;;;;;21.85;45.30;100346.95;1827885;78;21544;-66
2021/09/05 06:15:31;;;;;;;1.92;1.82;;;;;;;21.87;45.29;100347.02;1824337;76;21615;-66
2021/09/05 06:17:59;;;;;;;3.27;2.98;;;;;;;21.90;45.32;100351.14;1823111;76;21064;-73
2021/09/05 06:20:25;;;;;;;3.30;3.00;;;;;;;21.94;45.49;100355.88;1823710;76;21579;-72
2021/09/05 06:22:52;;;;;;;5.70;2.92;;;;;;;22.02;45.29;100356.09;1831502;78;20998;-72
2021/09/05 06:25:19;;;;;;;4.72;2.33;;;;;;;22.12;45.18;100355.55;1832385;76;21034;-71
2021/09/05 06:27:45;;;;;;;5.60;2.85;;;;;;;22.21;45.11;100360.91;1833052;76;21041;-68
2021/09/05 06:30:13;;;;;;;2.87;2.58;;;;;;;22.30;44.86;100353.34;1833849;77;21123;-70
2021/09/05 06:32:39;;;;;;;2.98;2.77;;;;;;;22.39;44.68;100361.43;1831004;77;21076;-68
2021/09/05 06:35:08;;;;;;;3.33;2.75;;;;;;;22.47;44.59;100363.80;1831069;77;21037;-68
2021/09/05 06:37:34;;;;;;;4.70;2.50;;;;;;;22.54;44.43;100362.33;1832363;77;21453;-69
2021/09/05 06:40:00;;;;;;;3.70;2.92;;;;;;;22.61;44.27;100368.47;1799070;78;22080;-69
2021/09/05 06:42:27;;;;;;;3.62;2.67;;;;;;;22.68;44.10;100364.33;1821311;77;21796;-68
2021/09/05 06:44:54;;;;;;;4.28;2.60;;;;;;;22.73;43.97;100365.78;1820394;78;20997;-70
2021/09/05 06:47:21;;;;;;;3.20;2.80;;;;;;;22.80;43.83;100363.80;1818646;77;21026;-70
2021/09/05 06:49:48;;;;;;;3.90;2.50;;;;;;;22.87;43.65;100370.45;1823455;77;21083;-70
2021/09/05 06:52:15;;;;;;;4.17;2.77;;;;;;;22.92;43.54;100360.56;1819974;77;21006;-70
2021/09/05 06:54:41;;;;;;;3.42;2.55;;;;;;;22.97;43.36;100365.30;1810777;78;21163;-70
2021/09/05 06:57:08;;;;;;;3.08;2.80;;;;;;;23.02;43.21;100370.00;1818076;77;21106;-70
2021/09/05 06:59:34;;;;;;;3.37;2.60;;;;;;;23.06;43.09;100363.08;1817263;77;20966;-70
2021/09/05 07:02:01;;;;;;;3.08;2.42;;;;;;;23.10;42.96;100367.81;1816546;77;21044;-70
2021/09/05 07:04:27;;;;;;;3.10;2.62;;;;;;;23.13;42.78;100365.15;1831470;77;21071;-70
2021/09/05 07:06:54;;;;;;;3.47;2.33;;;;;;;23.19;42.63;100370.97;1800622;77;21148;-71
2021/09/05 07:09:20;;;;;;;4.83;3.20;;;;;;;23.24;42.52;100374.34;1802220;78;20993;-68
2021/09/05 07:11:47;;;;;;;2.90;2.60;;;;;;;23.27;42.39;100376.03;1775998;78;22062;-69
2021/09/05 07:14:13;;;;;;;3.72;2.12;;;;;;;23.31;42.27;100378.59;1799187;77;21091;-69
2021/09/05 07:16:40;;;;;;;2.67;2.40;;;;;;;23.35;42.11;100376.20;1802018;77;21059;-69
2021/09/05 07:19:07;;;;;;;3.25;2.87;;;;;;;23.39;41.96;100373.84;1808790;78;21126;-69
2021/09/05 07:21:33;;;;;;;4.70;2.10;;;;;;;23.42;41.85;100380.98;1810667;77;21021;-68
2021/09/05 07:24:00;;;;;;;3.00;2.58;;;;;;;23.46;41.68;100382.69;1823126;77;21018;-68
2021/09/05 07:26:26;;;;;;;2.55;2.35;;;;;;;23.48;41.50;100375.95;1825616;77;21004;-69
2021/09/05 07:28:53;;;;;;;2.95;2.60;;;;;;;23.53;41.37;100387.46;1807138;77;21048;-69
2021/09/05 07:31:20;;;;;;;2.60;2.40;;;;;;;23.55;41.22;100388.86;1822912;77;21122;-69
2021/09/05 07:33:48;;;;;;;3.00;2.47;;;;;;;23.58;41.10;100383.48;1816980;77;21061;-68
2021/09/05 07:36:15;;;;;;;2.60;2.40;;;;;;;23.62;40.99;100386.55;1820459;78;21287;-68
2021/09/05 07:38:41;;;;;;;2.80;2.60;;;;;;;23.64;40.87;100388.48;1793390;78;21512;-68
2021/09/05 07:41:07;;;;;;;2.75;2.55;;;;;;;23.67;40.74;100390.19;1824308;77;21604;-70
2021/09/05 07:43:34;;;;;;;2.80;2.20;;;;;;;23.69;40.61;100389.42;1823025;78;22501;-69
2021/09/05 07:46:00;;;;;;;2.85;2.55;;;;;;;23.73;40.50;100394.66;1815562;77;21088;-70
2021/09/05 07:48:27;;;;;;;2.90;2.42;;;;;;;23.75;40.43;100400.66;1818867;77;21029;-69
2021/09/05 07:50:53;;;;;;;2.80;2.55;;;;;;;23.78;40.30;100392.63;1821685;77;21073;-69
2021/09/05 07:53:19;;;;;;;3.02;2.60;;;;;;;23.80;40.19;100403.22;1820084;77;21065;-69
2021/09/05 07:55:46;;;;;;;2.40;2.20;;;;;;;23.82;40.05;100397.87;1832693;77;21072;-68
2021/09/05 07:58:12;;;;;;;2.55;2.35;;;;;;;23.85;39.93;100393.84;1827629;77;20998;-69
2021/09/05 08:00:39;;;;;;;3.20;2.67;;;;;;;23.87;39.80;100391.17;1824425;78;21021;-69
2021/09/05 08:03:05;;;;;;;3.77;2.72;;;;;;;23.89;39.72;100399.92;1820677;77;21100;-70
2021/09/05 08:05:32;;;;;;;3.40;2.77;;;;;;;23.92;39.61;100397.25;1824686;77;20990;-68
2021/09/05 08:07:58;;;;;;;3.65;2.10;;;;;;;23.93;39.46;100395.66;1818516;77;21032;-69
2021/09/05 08:10:25;;;;;;;2.87;2.58;;;;;;;23.94;39.39;100395.94;1821771;78;21108;-68
2021/09/05 08:12:52;;;;;;;2.90;2.60;;;;;;;23.98;39.40;100391.39;1819870;77;21010;-68
2021/09/05 08:15:19;;;;;;;2.90;2.40;;;;;;;24.00;39.39;100392.80;1813175;77;21084;-68
2021/09/05 08:17:46;;;;;;;2.40;2.20;;;;;;;24.02;39.65;100389.30;1808365;78;21067;-70
2021/09/05 08:20:13;;;;;;;4.22;2.92;;;;;;;24.04;39.95;100392.59;1816331;77;21097;-69
2021/09/05 08:22:39;;;;;;;3.52;2.50;;;;;;;24.07;40.29;100394.84;1817280;77;21036;-70
2021/09/05 08:25:08;;;;;;;3.52;2.83;;;;;;;24.10;40.58;100396.23;1826766;77;21233;-69
2021/09/05 08:27:34;;;;;;;5.08;2.40;;;;;;;24.12;40.84;100400.34;1804178;77;21516;-69
2021/09/05 08:30:00;;;;;;;3.35;2.42;;;;;;;24.16;41.10;100403.95;1818140;78;21509;-70
2021/09/05 08:32:27;;;;;;;4.95;2.70;;;;;;;24.18;41.07;100403.17;1810686;77;21090;-69
2021/09/05 08:34:53;;;;;;;6.03;2.80;;;;;;;24.21;41.02;100408.12;1817346;78;21072;-69
2021/09/05 08:37:20;;;;;;;5.50;2.80;;;;;;;24.24;41.04;100403.55;1813977;78;21064;-70
2021/09/05 08:39:46;;;;;;;4.33;2.83;;;;;;;24.27;41.11;100408.52;1816608;77;20982;-70
2021/09/05 08:42:12;;;;;;;4.72;2.92;;;;;;;24.30;41.11;100406.68;1819299;77;21056;-69
2021/09/05 08:44:39;;;;;;;5.08;2.37;;;;;;;24.32;41.05;100410.80;1823025;77;21126;-69
2021/09/05 08:47:08;;;;;;;7.55;2.42;;;;;;;24.36;40.97;100418.44;1826941;77;21024;-67
2021/09/05 08:49:34;;;;;;;3.87;2.70;;;;;;;24.39;40.81;100418.78;1819857;77;21056;-66
2021/09/05 08:52:01;;;;;;;4.62;2.72;;;;;;;24.41;40.77;100416.64;1820422;77;21035;-67
2021/09/05 08:56:03;;;;;;;4.67;2.60;;;;;;;24.51;40.65;100420.11;1881193;75;22429;-70
2021/09/05 08:58:30;;;;;;;6.83;2.72;;;;;;;24.48;40.62;100420.04;1856806;77;21028;-70
2021/09/05 09:00:56;;;;;;;2.92;2.12;;;;;;;24.52;40.63;100425.30;1843115;77;21122;-69
2021/09/05 09:03:24;;;;;;;5.08;2.30;;;;;;;24.57;40.50;100412.88;1800842;77;21087;-70
2021/09/05 09:05:53;;;;;;;8.75;2.65;;;;;;;24.61;40.42;100419.46;1830630;77;21041;-69
2021/09/05 09:08:21;;;;;;;4.97;2.30;;;;;;;24.64;40.36;100414.38;1831041;77;21459;-70
2021/09/05 09:10:57;;;;;;;7.20;2.20;;;;;;;24.68;40.29;100420.14;1784447;80;21659;-66
2021/09/05 09:13:34;;;;;;;4.20;2.20;;;;;;;24.72;40.46;100415.86;1794098;78;21116;-66
2021/09/05 09:16:12;;;;;;;2.45;2.10;;;;;;;24.75;40.57;100407.77;1807790;78;21005;-66
2021/09/05 09:18:42;;;;;;;4.40;2.10;;;;;;;24.79;40.59;100408.92;1791981;78;21025;-65
2021/09/05 09:21:10;;;;;;;3.77;2.02;;;;;;;24.81;40.52;100399.45;1784044;79;21066;-65
2021/09/05 09:23:38;;;;;;;3.72;2.20;;;;;;;24.85;40.42;100399.78;1786107;80;21068;-64
2021/09/05 09:26:08;;;;;;;2.83;1.60;;;;;;;24.87;40.45;100394.92;1812892;78;21137;-66
2021/09/05 09:28:37;;;;;;;3.55;2.15;;;;;;;24.90;40.49;100393.08;1793834;78;21014;-65
2021/09/05 09:31:14;;;;;;;3.37;2.08;;;;;;;24.92;40.37;100388.22;1811733;78;21505;-66
2021/09/05 09:33:43;;;;;;;2.20;1.95;;;;;;;24.96;40.27;100391.27;1753600;80;21010;-65
2021/09/05 09:36:16;;;;;;;4.15;1.90;;;;;;;25.00;40.17;100391.06;1788590;80;21049;-65
2021/09/05 09:38:57;;;;;;;;;;;;;;;25.04;40.04;100397.64;1768973;78;21090;-65
2021/09/05 09:41:29;;;;;;;3.75;1.90;;;;;;;25.05;39.95;100394.69;1799001;78;20431;-65
2021/09/05 09:44:00;;;;;;;2.67;2.17;;;;;;;25.03;39.94;100400.88;1810528;78;21483;-65
2021/09/05 09:46:30;;;;;;;3.65;1.90;;;;;;;25.06;39.83;100403.11;1778497;79;21104;-65
2021/09/05 09:49:05;;;;;;;8.50;2.42;;;;;;;25.07;39.76;100407.49;1797566;78;21115;-65
2021/09/05 09:51:32;;;;;;;2.67;1.92;;;;;;;25.08;39.72;100405.05;1768511;80;21828;-67
2021/09/05 09:54:01;;;;;;;5.00;2.25;;;;;;;25.09;39.55;100408.06;1799895;78;20974;-66
2021/09/05 09:56:27;;;;;;;7.72;2.60;;;;;;;25.09;39.11;100408.58;1776991;79;21036;-66
2021/09/05 09:58:57;;;;;;;3.72;2.77;;;;;;;25.09;39.15;100412.66;1787955;79;21025;-66
2021/09/05 10:01:29;;;;;;;4.37;2.42;;;;;;;25.08;38.82;100417.28;1767998;79;21525;-66
2021/09/05 10:03:57;;;;;;;3.70;2.42;;;;;;;25.07;38.61;100415.64;1777762;80;21834;-66
2021/09/05 10:06:31;;;;;;;3.25;1.90;;;;;;;25.05;38.14;100419.15;1796284;78;21100;-66
2021/09/05 10:09:04;;;;;;;4.00;1.85;;;;;;;25.08;35.96;100423.25;1793878;78;21029;-66
2021/09/05 10:11:33;;;;;;;2.92;1.62;;;;;;;25.04;34.65;100430.27;1783011;78;21054;-68
2021/09/05 10:14:00;;;;;;;9.18;3.10;;;;;;;24.97;33.96;100438.56;1781659;78;21045;-66
2021/09/05 10:16:28;;;;;;;4.62;1.80;;;;;;;24.87;34.31;100496.83;1783445;80;20979;-66
2021/09/05 10:19:00;;;;;;;4.45;1.72;;;;;;;24.65;33.64;100467.64;1764014;80;21025;-68
2021/09/05 10:21:27;;;;;;;3.45;1.80;;;;;;;24.43;34.28;100487.82;1766679;80;21077;-68
2021/09/05 10:23:56;;;;;;;3.15;1.92;;;;;;;24.23;35.37;100477.94;1767087;80;20993;-68
2021/09/05 10:26:24;;;;;;;4.42;1.90;;;;;;;23.97;35.18;100465.71;1781073;80;21648;-69
2021/09/05 10:28:55;;;;;;;6.95;2.55;;;;;;;23.65;34.88;100466.91;1765743;79;21844;-67
2021/09/05 10:31:30;;;;;;;7.80;5.17;;;;;;;23.32;35.72;100471.03;1777441;80;21045;-66
2021/09/05 10:33:58;;;;;;;7.67;3.75;;;;;;;23.08;37.16;100471.55;1772767;80;21037;-68
2021/09/05 10:36:26;;;;;;;4.33;2.02;;;;;;;22.87;37.80;100470.17;1760521;80;20990;-68
2021/09/05 10:39:06;;;;;;;4.80;2.22;;;;;;;22.67;38.55;100470.98;1769958;80;21068;-72
2021/09/05 10:41:49;;;;;;;3.52;2.00;;;;;;;22.48;38.93;100467.48;1768682;80;20994;-70
2021/09/05 10:44:16;;;;;;;2.75;1.80;;;;;;;22.32;39.05;100467.60;1751795;80;21552;-72
2021/09/05 10:46:51;;;;;;;2.77;2.00;;;;;;;22.21;38.96;100461.03;1766344;80;21044;-70
2021/09/05 10:49:39;;;;;;;4.40;1.70;;;;;;;22.21;39.31;100454.80;1758883;80;21023;-72
2021/09/05 10:52:06;;;;;;;2.25;1.87;;;;;;;22.23;39.56;100458.11;1768724;80;21081;-70
2021/09/05 10:54:32;;;;;;;1.72;1.50;;;;;;;22.29;39.45;100449.95;1759069;79;21866;-70
2021/09/05 10:56:59;;;;;;;2.75;1.80;;;;;;;22.39;39.11;100443.98;1759079;81;21053;-69
2021/09/05 10:59:32;;;;;;;2.20;1.72;;;;;;;22.49;38.89;100437.48;1805454;78;21119;-71
2021/09/05 11:02:00;;;;;;;2.22;1.65;;;;;;;22.57;38.90;100435.80;1823370;78;21048;-70
2021/09/05 11:04:43;;;;;;;2.22;2.02;;;;;;;22.63;37.54;100430.53;1819301;78;21024;-70
2021/09/05 11:07:12;;;;;;;5.60;2.77;;;;;;;22.62;37.28;100437.84;1821580;78;21063;-67
2021/09/05 11:09:43;;;;;;;6.00;2.80;;;;;;;22.57;37.60;100437.16;1786355;78;21044;-71
2021/09/05 11:12:23;;;;;;;12.18;3.27;;;;;;;22.52;37.34;100444.31;1819239;78;21007;-70
2021/09/05 11:14:54;;;;;;;7.37;2.87;;;;;;;22.44;38.67;100454.94;1815209;78;21092;-69
2021/09/05 11:17:27;;;;;;;8.20;3.12;;;;;;;22.34;40.68;100470.38;1818930;78;21068;-69
2021/09/05 11:20:12;;;;;;;4.97;2.85;;;;;;;22.19;41.61;100480.73;1820056;78;21150;-70
2021/09/05 11:22:46;;;;;;;4.00;2.85;;;;;;;22.09;41.60;100473.15;1806297;78;21038;-72
2021/09/05 11:25:30;;;;;;;3.77;2.35;;;;;;;22.02;42.26;100463.45;1819550;78;21080;-70
2021/09/05 11:28:09;;;;;;;3.85;2.17;;;;;;;21.89;42.54;100461.22;1741526;81;21057;-71
2021/09/05 11:30:39;;;;;;;3.98;2.30;;;;;;;21.69;42.79;100459.23;1769796;80;21125;-71
2021/09/05 11:33:10;;;;;;;3.30;2.20;;;;;;;21.58;43.43;100458.94;1816175;78;21476;-69
2021/09/05 11:35:44;;;;;;;4.25;2.30;;;;;;;21.61;44.22;100460.36;1812307;78;21534;-71
2021/09/05 11:38:13;;;;;;;3.65;2.33;;;;;;;21.70;43.47;100460.37;1818640;78;21052;-70
2021/09/05 11:40:51;;;;;;;4.75;2.08;;;;;;;21.81;43.18;100457.46;1812231;78;21635;-70
2021/09/05 11:43:37;;;;;;;5.17;2.33;;;;;;;21.92;43.57;100452.66;1796867;78;21052;-73